Time;durP1;ratioP1;P1;durP2;ratioP2;P2;SDS_P1;SDS_P2;PMS_P1;PMS_P2;Temp;Humidity;BMP_temperature;BMP_pressure;BME280_temperature;BME280_humidity;BME280_pressure;Samples;Min_cycle;Max_cycle;Signal;HPM_P1;HPM_P2
2022/10/18 00:02:18;;;;;;;46.25;26.70;;;12.50;79.90;;;;;;5096418;28;20024;-13
2022/10/18 00:04:45;;;;;;;46.55;25.83;;;12.50;79.90;;;;;;5096013;28;20059;-12
2022/10/18 00:07:11;;;;;;;47.15;27.20;;;12.40;79.80;;;;;;5096071;28;20034;-12
2022/10/18 00:09:37;;;;;;;46.70;25.80;;;12.40;79.90;;;;;;5095866;28;20454;-13
2022/10/18 00:12:03;;;;;;;37.50;22.15;;;12.40;79.90;;;;;;5095646;28;20093;-12
2022/10/18 00:14:29;;;;;;;42.30;24.33;;;12.40;79.80;;;;;;5095871;28;20059;-12
2022/10/18 00:16:56;;;;;;;47.28;28.08;;;12.40;79.80;;;;;;5095580;28;20062;-12
2022/10/18 00:19:22;;;;;;;48.03;27.33;;;12.40;80.00;;;;;;5095683;28;20039;-13
2022/10/18 00:21:51;;;;;;;49.20;27.15;;;12.30;79.90;;;;;;5096020;28;20024;-13
2022/10/18 00:24:16;;;;;;;41.58;24.73;;;12.30;80.20;;;;;;5096071;28;20021;-12
2022/10/18 00:26:42;;;;;;;36.78;21.92;;;12.30;80.40;;;;;;5095590;28;20024;-13
2022/10/18 00:29:13;;;;;;;30.27;19.42;;;12.20;80.10;;;;;;5095204;28;20055;-13
2022/10/18 00:31:39;;;;;;;38.50;22.05;;;12.20;80.00;;;;;;5095120;28;20490;-12
2022/10/18 00:34:10;;;;;;;34.53;20.90;;;12.10;80.00;;;;;;5095686;28;20062;-13
2022/10/18 00:36:35;;;;;;;37.38;23.02;;;12.10;79.80;;;;;;5095468;28;20426;-13
2022/10/18 00:39:04;;;;;;;40.65;23.90;;;12.10;80.00;;;;;;5095149;28;20085;-12
2022/10/18 00:41:32;;;;;;;37.80;23.90;;;12.10;80.10;;;;;;5095421;28;20056;-12
2022/10/18 00:43:59;;;;;;;37.13;22.45;;;12.10;80.00;;;;;;5095917;28;20020;-12
2022/10/18 00:46:32;;;;;;;45.58;25.17;;;12.10;80.00;;;;;;5095245;28;20038;-12
2022/10/18 00:49:10;;;;;;;51.23;27.03;;;12.10;79.90;;;;;;5095076;28;20020;-13
2022/10/18 00:51:47;;;;;;;39.33;22.45;;;12.10;80.00;;;;;;5095444;28;20357;-12
2022/10/18 00:54:15;;;;;;;51.97;28.02;;;12.00;79.80;;;;;;5095256;28;20030;-12
2022/10/18 00:56:43;;;;;;;59.72;31.70;;;12.00;79.90;;;;;;5095334;28;20496;-12
2022/10/18 00:59:12;;;;;;;62.20;32.88;;;12.00;80.10;;;;;;5095084;28;20472;-12
2022/10/18 01:01:37;;;;;;;70.65;35.53;;;12.00;80.10;;;;;;5095167;28;20388;-13
2022/10/18 01:04:03;;;;;;;49.35;26.80;;;12.00;80.30;;;;;;5095211;28;20031;-13
2022/10/18 01:06:31;;;;;;;50.75;28.65;;;11.90;80.40;;;;;;5095074;28;20042;-13
2022/10/18 01:09:14;;;;;;;68.30;35.60;;;11.90;80.50;;;;;;5094648;28;20079;-12
2022/10/18 01:12:10;;;;;;;62.97;32.50;;;11.90;80.60;;;;;;5094514;28;20052;-13
2022/10/18 01:14:57;;;;;;;51.75;27.73;;;11.90;80.80;;;;;;5094968;28;20031;-13
2022/10/18 01:17:35;;;;;;;51.67;28.38;;;11.90;81.10;;;;;;5094989;28;20115;-13
2022/10/18 01:20:06;;;;;;;55.88;29.40;;;11.90;81.10;;;;;;5094931;28;20150;-13
2022/10/18 01:22:37;;;;;;;56.17;30.50;;;11.90;81.10;;;;;;5094536;28;20115;-13
2022/10/18 01:25:13;;;;;;;44.38;25.38;;;11.90;80.90;;;;;;5094303;28;20038;-12
2022/10/18 01:28:08;;;;;;;42.15;24.05;;;11.90;80.90;;;;;;5094898;28;20027;-13
2022/10/18 01:30:43;;;;;;;41.83;23.65;;;11.90;80.90;;;;;;5092527;28;20031;-13
2022/10/18 01:33:39;;;;;;;36.13;21.30;;;11.90;81.20;;;;;;5092952;28;20028;-12
2022/10/18 01:36:09;;;;;;;37.55;22.63;;;11.90;81.00;;;;;;5094335;28;20074;-13
2022/10/18 01:38:37;;;;;;;37.00;21.98;;;11.80;81.00;;;;;;5094115;28;20075;-12
2022/10/18 01:41:04;;;;;;;37.63;22.98;;;11.80;80.80;;;;;;5094051;28;20123;-13
2022/10/18 01:43:31;;;;;;;42.90;24.95;;;11.80;81.00;;;;;;5094383;28;20028;-13
2022/10/18 01:45:59;;;;;;;42.83;24.15;;;11.80;81.00;;;;;;5094423;28;20024;-12
2022/10/18 01:48:25;;;;;;;54.63;30.50;;;11.80;81.20;;;;;;5094361;28;20107;-12
2022/10/18 01:50:53;;;;;;;40.60;24.17;;;11.80;81.20;;;;;;5092837;28;20028;-13
2022/10/18 01:53:28;;;;;;;38.78;21.90;;;11.80;81.20;;;;;;5093869;28;20084;-12
2022/10/18 01:56:07;;;;;;;39.85;22.05;;;11.70;81.00;;;;;;5094500;28;20028;-12
2022/10/18 01:58:50;;;;;;;48.10;27.10;;;11.70;80.90;;;;;;5094273;28;20016;-12
2022/10/18 02:01:25;;;;;;;39.03;21.90;;;11.70;81.10;;;;;;5093765;28;20025;-12
2022/10/18 02:03:56;;;;;;;41.22;23.67;;;11.70;81.20;;;;;;5093779;28;20524;-12
2022/10/18 02:06:30;;;;;;;47.42;26.48;;;11.70;81.30;;;;;;5094096;28;20069;-12
2022/10/18 02:09:23;;;;;;;40.63;22.70;;;11.70;81.40;;;;;;5093850;28;20069;-12
2022/10/18 02:11:53;;;;;;;42.13;24.87;;;11.60;81.30;;;;;;5093079;28;20052;-12
2022/10/18 02:14:22;;;;;;;47.80;27.27;;;11.60;81.50;;;;;;5093534;28;20028;-13
2022/10/18 02:16:52;;;;;;;49.60;27.88;;;11.60;81.30;;;;;;5093369;28;20031;-12
2022/10/18 02:19:24;;;;;;;38.20;23.27;;;11.60;81.30;;;;;;5093862;28;20016;-13
2022/10/18 02:21:52;;;;;;;37.17;22.38;;;11.50;81.30;;;;;;5093527;28;20391;-12
2022/10/18 02:24:20;;;;;;;34.08;20.45;;;11.50;81.40;;;;;;5093665;28;20371;-14
2022/10/18 02:26:46;;;;;;;33.97;21.83;;;11.50;81.30;;;;;;5093462;28;20027;-12
2022/10/18 02:29:12;;;;;;;32.50;18.02;;;11.50;81.50;;;;;;5093337;28;20074;-12
2022/10/18 02:31:46;;;;;;;35.40;21.88;;;11.50;81.20;;;;;;5093266;28;20031;-14
2022/10/18 02:34:24;;;;;;;;;;;11.50;81.50;;;;;;5094062;28;20111;-13
2022/10/18 02:36:59;;;;;;;40.35;22.88;;;11.50;81.60;;;;;;5093357;28;19907;-13
2022/10/18 02:39:36;;;;;;;36.30;19.50;;;11.50;81.40;;;;;;5093437;28;20424;-12
2022/10/18 02:42:06;;;;;;;35.10;21.60;;;11.50;81.30;;;;;;5093530;28;20093;-12
2022/10/18 02:44:37;;;;;;;40.70;21.67;;;11.40;81.40;;;;;;5093261;28;20039;-12
2022/10/18 02:47:04;;;;;;;43.40;23.45;;;11.40;81.30;;;;;;5092931;28;20032;-12
2022/10/18 02:49:30;;;;;;;52.55;28.55;;;11.40;81.40;;;;;;5093212;28;20031;-11
2022/10/18 02:51:56;;;;;;;35.00;19.70;;;11.40;81.50;;;;;;5093484;28;20016;-12
2022/10/18 02:54:23;;;;;;;36.28;20.10;;;11.40;81.40;;;;;;5096067;28;20031;-12
2022/10/18 02:56:49;;;;;;;42.60;25.25;;;11.40;81.50;;;;;;5097303;28;20031;-11
2022/10/18 02:59:15;;;;;;;36.22;20.70;;;11.30;81.60;;;;;;5097401;28;20059;-13
2022/10/18 03:01:41;;;;;;;42.60;23.25;;;11.30;81.50;;;;;;5097519;28;20032;-12
2022/10/18 03:04:08;;;;;;;37.15;21.35;;;11.30;81.60;;;;;;5098042;28;20494;-12
2022/10/18 03:06:33;;;;;;;36.45;22.00;;;11.30;81.60;;;;;;5097593;28;20049;-13
2022/10/18 03:09:03;;;;;;;35.92;22.00;;;11.30;81.70;;;;;;5097105;28;20364;-12
2022/10/18 03:11:29;;;;;;;32.25;19.48;;;11.30;81.70;;;;;;5097020;28;20056;-11
2022/10/18 03:13:55;;;;;;;24.10;14.32;;;11.30;81.80;;;;;;5097293;28;20036;-12
2022/10/18 03:16:21;;;;;;;22.50;13.98;;;11.30;81.40;;;;;;5097227;28;20039;-12
2022/10/18 03:18:47;;;;;;;39.42;21.85;;;11.30;81.20;;;;;;5096728;28;20396;-13
2022/10/18 03:21:13;;;;;;;32.55;20.40;;;11.30;81.40;;;;;;5097217;28;20081;-12
2022/10/18 03:23:40;;;;;;;27.05;16.40;;;11.30;81.30;;;;;;5097048;28;20020;-13
2022/10/18 03:26:06;;;;;;;28.02;17.65;;;11.20;81.30;;;;;;5097145;28;20055;-12
2022/10/18 03:28:32;;;;;;;24.20;14.93;;;11.20;81.40;;;;;;5096861;28;20070;-12
2022/10/18 03:31:02;;;;;;;33.13;18.25;;;11.20;81.20;;;;;;5096842;28;20031;-12
2022/10/18 03:33:30;;;;;;;26.45;15.32;;;11.20;81.10;;;;;;5097197;28;20024;-12
2022/10/18 03:35:56;;;;;;;28.48;17.80;;;11.20;81.10;;;;;;5096919;28;20119;-12
2022/10/18 03:38:22;;;;;;;31.85;18.10;;;11.20;81.00;;;;;;5096647;28;20103;-12
2022/10/18 03:40:48;;;;;;;34.75;19.10;;;11.20;81.10;;;;;;5096578;28;20443;-12
2022/10/18 03:43:14;;;;;;;39.25;22.63;;;11.10;81.00;;;;;;5097059;28;20077;-11
2022/10/18 03:45:40;;;;;;;32.30;19.25;;;11.10;81.20;;;;;;5096864;28;20441;-11
2022/10/18 03:48:06;;;;;;;32.33;20.42;;;11.10;81.40;;;;;;5096939;28;20029;-11
2022/10/18 03:50:32;;;;;;;28.75;16.45;;;11.00;81.40;;;;;;5096443;28;20028;-12
2022/10/18 03:52:58;;;;;;;37.25;21.13;;;11.00;81.40;;;;;;5094844;28;20527;-13
2022/10/18 03:55:23;;;;;;;29.98;18.27;;;11.00;81.60;;;;;;5096200;28;20032;-12
2022/10/18 03:57:49;;;;;;;34.85;20.42;;;10.90;81.50;;;;;;5095005;28;20032;-12
2022/10/18 04:00:15;;;;;;;26.27;16.33;;;10.90;81.50;;;;;;5096151;28;20028;-13
2022/10/18 04:02:41;;;;;;;32.75;20.17;;;11.00;81.30;;;;;;5096429;28;20191;-12
2022/10/18 04:05:08;;;;;;;43.63;26.08;;;10.90;81.50;;;;;;5095844;28;20017;-12
2022/10/18 04:07:35;;;;;;;33.33;19.55;;;10.90;81.50;;;;;;5096257;28;20503;-12
2022/10/18 04:10:00;;;;;;;34.80;21.08;;;10.90;81.50;;;;;;5096079;28;20023;-13
2022/10/18 04:12:26;;;;;;;36.50;20.55;;;10.90;81.60;;;;;;5094546;28;20052;-12
2022/10/18 04:14:52;;;;;;;39.13;20.08;;;10.80;81.60;;;;;;5095650;28;20031;-12
2022/10/18 04:17:18;;;;;;;33.55;20.70;;;10.80;81.60;;;;;;5096089;28;20153;-12
2022/10/18 04:19:44;;;;;;;30.90;18.83;;;10.80;81.60;;;;;;5095720;28;20115;-12
2022/10/18 04:22:11;;;;;;;32.25;19.50;;;10.90;81.70;;;;;;5095998;28;20158;-12
2022/10/18 04:24:37;;;;;;;29.95;18.23;;;10.90;81.60;;;;;;5095614;28;20032;-12
2022/10/18 04:27:05;;;;;;;33.33;18.60;;;10.90;81.70;;;;;;5095783;28;20035;-13
2022/10/18 04:29:32;;;;;;;32.97;19.15;;;10.90;81.40;;;;;;5095844;28;20472;-12
2022/10/18 04:31:58;;;;;;;31.73;18.17;;;10.90;81.40;;;;;;5095900;28;20016;-12
2022/10/18 04:34:24;;;;;;;30.42;17.63;;;10.80;81.50;;;;;;5095565;28;20030;-13
2022/10/18 04:36:50;;;;;;;27.92;17.65;;;10.80;81.40;;;;;;5095864;28;20099;-12
2022/10/18 04:39:16;;;;;;;28.65;16.65;;;10.80;81.40;;;;;;5095619;28;20108;-13
2022/10/18 04:41:42;;;;;;;26.95;16.15;;;10.70;81.30;;;;;;5095754;28;20040;-12
2022/10/18 04:44:07;;;;;;;26.75;16.73;;;10.70;81.20;;;;;;5095689;28;20023;-12
2022/10/18 04:46:33;;;;;;;28.55;18.35;;;10.80;81.20;;;;;;5095457;28;20036;-13
2022/10/18 04:49:00;;;;;;;37.83;21.20;;;10.70;81.30;;;;;;5095274;28;20533;-12
2022/10/18 04:51:29;;;;;;;35.10;19.33;;;10.70;81.50;;;;;;5095490;28;20099;-12
2022/10/18 04:53:55;;;;;;;39.28;23.90;;;10.70;81.50;;;;;;5094982;28;20115;-13
2022/10/18 04:56:21;;;;;;;52.10;25.30;;;10.60;81.40;;;;;;5093833;28;20032;-12
2022/10/18 04:58:47;;;;;;;33.20;19.33;;;10.60;81.90;;;;;;5094834;28;20429;-12
2022/10/18 05:01:13;;;;;;;37.97;19.92;;;10.60;81.90;;;;;;5095302;28;20027;-12
2022/10/18 05:03:39;;;;;;;32.50;18.90;;;10.50;81.70;;;;;;5093944;28;20027;-12
2022/10/18 05:06:05;;;;;;;32.28;18.60;;;10.50;81.90;;;;;;5094844;28;20488;-13
2022/10/18 05:08:33;;;;;;;26.67;16.23;;;10.50;81.90;;;;;;5094781;28;20038;-12
2022/10/18 05:10:59;;;;;;;29.48;17.80;;;10.50;81.90;;;;;;5094843;28;20049;-12
2022/10/18 05:13:25;;;;;;;25.67;17.08;;;10.50;81.90;;;;;;5094924;28;20132;-12
2022/10/18 05:15:51;;;;;;;28.25;18.50;;;10.50;81.90;;;;;;5094154;28;20451;-12
2022/10/18 05:18:17;;;;;;;29.15;17.63;;;10.50;81.90;;;;;;5094650;28;20024;-12
2022/10/18 05:20:43;;;;;;;26.23;17.13;;;10.50;81.80;;;;;;5094886;28;20080;-12
2022/10/18 05:23:09;;;;;;;30.33;18.83;;;10.40;81.80;;;;;;5094364;28;20028;-12
2022/10/18 05:25:39;;;;;;;28.35;17.08;;;10.40;81.90;;;;;;5094854;28;20023;-12
2022/10/18 05:28:06;;;;;;;34.15;19.77;;;10.40;81.80;;;;;;5094435;28;20031;-12
2022/10/18 05:30:32;;;;;;;50.30;28.13;;;10.40;81.90;;;;;;5094699;28;20028;-13
2022/10/18 05:32:58;;;;;;;38.47;21.73;;;10.40;82.00;;;;;;5092971;28;20016;-13
2022/10/18 05:35:23;;;;;;;33.67;19.15;;;10.30;82.10;;;;;;5094490;28;20076;-13
2022/10/18 05:37:49;;;;;;;30.77;18.50;;;10.30;82.00;;;;;;5158381;22;20912;-18
2022/10/18 05:40:15;;;;;;;32.50;19.30;;;10.30;82.00;;;;;;5054474;28;20047;-19
2022/10/18 05:42:41;;;;;;;23.27;14.82;;;10.30;82.00;;;;;;5054229;28;20510;-20
2022/10/18 05:45:08;;;;;;;28.52;17.58;;;10.30;82.00;;;;;;5053851;28;20610;-20
2022/10/18 05:47:33;;;;;;;44.17;22.70;;;10.40;81.90;;;;;;5054496;28;20032;-20
2022/10/18 05:50:00;;;;;;;37.92;21.67;;;10.40;82.00;;;;;;5054441;28;20021;-20
2022/10/18 05:52:25;;;;;;;41.65;22.73;;;10.40;82.00;;;;;;5054119;28;20021;-20
2022/10/18 05:54:51;;;;;;;35.50;20.80;;;10.40;82.30;;;;;;5053310;28;20035;-19
2022/10/18 05:57:17;;;;;;;38.35;20.48;;;10.40;82.50;;;;;;5052509;28;20120;-20
2022/10/18 05:59:43;;;;;;;49.30;28.23;;;10.40;82.20;;;;;;5054075;28;20017;-19
2022/10/18 06:02:11;;;;;;;44.10;23.48;;;10.40;82.10;;;;;;5053948;28;20096;-20
2022/10/18 06:04:37;;;;;;;38.30;21.50;;;10.50;82.10;;;;;;5053901;28;20032;-19
2022/10/18 06:07:08;;;;;;;42.67;23.17;;;10.60;82.50;;;;;;5053970;28;20074;-19
2022/10/18 06:09:34;;;;;;;36.72;20.73;;;10.70;82.30;;;;;;5053517;28;20024;-18
2022/10/18 06:12:00;;;;;;;37.38;20.17;;;10.80;82.50;;;;;;5052288;28;20036;-19
2022/10/18 06:14:26;;;;;;;38.60;21.88;;;10.90;82.50;;;;;;5053350;28;20029;-20
2022/10/18 06:16:52;;;;;;;41.45;22.75;;;10.90;82.60;;;;;;5053512;28;20100;-19
2022/10/18 06:19:18;;;;;;;41.05;22.30;;;11.10;82.60;;;;;;5053649;28;20028;-20
2022/10/18 06:21:44;;;;;;;40.38;20.58;;;11.20;83.00;;;;;;5053660;28;20071;-19
2022/10/18 06:24:10;;;;;;;35.30;18.45;;;11.40;82.90;;;;;;5053516;28;20075;-20
2022/10/18 06:26:36;;;;;;;35.17;19.90;;;11.50;82.70;;;;;;5053186;28;20538;-20
2022/10/18 06:29:01;;;;;;;34.05;20.35;;;11.70;82.80;;;;;;5052775;28;20024;-19
2022/10/18 06:31:28;;;;;;;53.78;28.95;;;11.90;82.90;;;;;;5054034;28;20021;-19
2022/10/18 06:33:59;;;;;;;41.17;22.85;;;12.00;82.90;;;;;;5053372;28;20029;-20
2022/10/18 06:36:26;;;;;;;42.65;24.08;;;12.20;82.80;;;;;;5053158;28;20060;-17
2022/10/18 06:38:53;;;;;;;41.40;22.58;;;12.40;82.80;;;;;;5052512;28;20475;-19
2022/10/18 06:41:19;;;;;;;40.08;21.73;;;12.50;82.80;;;;;;5053409;28;20052;-16
2022/10/18 06:43:49;;;;;;;36.90;21.85;;;12.70;82.90;;;;;;5051870;28;20106;-18
2022/10/18 06:46:16;;;;;;;35.08;20.45;;;12.90;82.90;;;;;;5053299;28;20024;-19
2022/10/18 06:48:42;;;;;;;37.65;20.70;;;13.10;82.70;;;;;;5053016;28;20029;-19
2022/10/18 06:51:09;;;;;;;38.42;21.45;;;13.40;82.60;;;;;;5052797;28;20067;-17
2022/10/18 06:53:37;;;;;;;35.83;20.92;;;13.60;82.30;;;;;;5053172;28;20108;-18
2022/10/18 06:56:15;;;;;;;40.17;21.77;;;13.80;82.20;;;;;;5053252;28;20056;-19
2022/10/18 06:58:41;;;;;;;36.47;20.73;;;14.10;82.00;;;;;;5053231;28;20033;-19
2022/10/18 07:01:12;;;;;;;35.80;22.52;;;14.40;81.60;;;;;;5052678;28;20400;-15
2022/10/18 07:03:38;;;;;;;36.55;21.90;;;14.60;81.40;;;;;;5053199;28;20032;-17
2022/10/18 07:06:08;;;;;;;36.60;23.02;;;14.90;81.00;;;;;;5053008;28;20025;-17
2022/10/18 07:08:35;;;;;;;38.80;21.83;;;15.20;80.40;;;;;;5053091;28;20029;-19
2022/10/18 07:11:01;;;;;;;38.78;23.27;;;15.50;80.00;;;;;;5053318;28;20032;-20
2022/10/18 07:13:29;;;;;;;45.15;26.15;;;15.70;79.10;;;;;;5052701;28;20116;-19
2022/10/18 07:16:02;;;;;;;46.97;27.92;;;16.10;78.90;;;;;;5053052;28;20037;-18
2022/10/18 07:18:29;;;;;;;38.17;25.60;;;16.30;78.60;;;;;;5053071;28;20065;-19
2022/10/18 07:20:55;;;;;;;45.47;27.92;;;16.60;78.20;;;;;;5052644;28;20025;-19
2022/10/18 07:23:24;;;;;;;45.58;26.88;;;16.80;77.90;;;;;;5053301;28;20057;-18
2022/10/18 07:25:50;;;;;;;53.92;32.70;;;17.00;76.80;;;;;;5052647;28;20021;-20
2022/10/18 07:28:16;;;;;;;48.85;27.80;;;17.20;76.70;;;;;;5052574;28;20027;-20
2022/10/18 07:30:42;;;;;;;48.38;28.63;;;17.40;76.60;;;;;;5052904;28;20082;-20
2022/10/18 07:33:08;;;;;;;45.00;28.17;;;17.40;76.00;;;;;;5052559;28;20426;-18
2022/10/18 07:35:34;;;;;;;42.75;26.33;;;17.40;75.80;;;;;;5052907;28;20043;-20
2022/10/18 07:38:00;;;;;;;52.60;31.35;;;17.40;76.00;;;;;;5052261;28;20124;-18
2022/10/18 07:40:26;;;;;;;53.65;31.85;;;17.50;75.90;;;;;;5055501;28;20025;-16
2022/10/18 07:42:52;;;;;;;48.80;29.73;;;17.60;75.60;;;;;;5056698;28;20032;-18
2022/10/18 07:45:17;;;;;;;55.15;32.78;;;17.60;75.90;;;;;;5056530;28;20018;-17
2022/10/18 07:47:43;;;;;;;46.00;28.25;;;17.80;75.50;;;;;;5056527;28;20052;-19
2022/10/18 07:50:09;;;;;;;51.25;30.60;;;17.90;75.60;;;;;;5056111;28;20040;-20
2022/10/18 07:52:35;;;;;;;50.97;28.38;;;18.10;75.30;;;;;;5056023;28;20069;-18
2022/10/18 07:55:01;;;;;;;47.47;29.00;;;18.20;75.00;;;;;;5055757;28;20053;-16
2022/10/18 07:57:27;;;;;;;50.90;29.85;;;18.40;74.50;;;;;;5055975;28;20025;-19
2022/10/18 07:59:55;;;;;;;54.08;31.67;;;18.50;74.30;;;;;;5055986;28;20036;-18
2022/10/18 08:02:24;;;;;;;59.78;33.83;;;18.60;74.00;;;;;;5055868;28;20106;-19
2022/10/18 08:04:50;;;;;;;65.30;35.45;;;18.70;74.10;;;;;;5055693;28;20017;-19
2022/10/18 08:07:16;;;;;;;62.92;35.30;;;18.70;74.20;;;;;;5055811;28;20036;-19
2022/10/18 08:09:42;;;;;;;70.32;38.05;;;18.80;73.90;;;;;;5055803;28;20028;-19
2022/10/18 08:12:08;;;;;;;67.47;36.72;;;18.90;73.30;;;;;;5055886;28;20039;-19
2022/10/18 08:14:34;;;;;;;65.00;36.80;;;19.10;73.20;;;;;;5055741;28;20063;-18
2022/10/18 08:17:00;;;;;;;63.03;35.55;;;19.30;72.80;;;;;;5055715;28;20115;-19
2022/10/18 08:19:25;;;;;;;59.55;33.97;;;19.50;72.20;;;;;;5055850;28;20380;-19
2022/10/18 08:21:51;;;;;;;60.28;32.95;;;19.70;71.40;;;;;;5055550;28;20078;-18
2022/10/18 08:24:17;;;;;;;58.95;33.50;;;19.90;71.20;;;;;;5055646;28;20021;-18
2022/10/18 08:26:44;;;;;;;69.90;39.25;;;20.10;70.50;;;;;;5055699;28;20086;-18
2022/10/18 08:29:10;;;;;;;62.88;34.92;;;20.40;69.30;;;;;;5055212;28;20031;-19
2022/10/18 08:31:36;;;;;;;67.70;37.60;;;20.50;69.10;;;;;;5055696;28;20047;-17
2022/10/18 08:34:02;;;;;;;62.55;34.17;;;20.80;68.40;;;;;;5055184;28;20469;-18
2022/10/18 08:36:28;;;;;;;69.97;37.25;;;20.90;67.30;;;;;;5055579;28;20035;-19
2022/10/18 08:38:54;;;;;;;56.33;31.15;;;21.10;67.00;;;;;;5054911;28;20493;-18
2022/10/18 08:41:44;;;;;;;59.30;32.22;;;21.30;67.40;;;;;;5055977;28;20029;-18
2022/10/18 08:44:31;;;;;;;60.90;33.88;;;21.40;66.80;;;;;;5055451;28;20163;-17
2022/10/18 08:47:16;;;;;;;69.07;38.08;;;21.60;65.50;;;;;;5054929;28;20028;-18
2022/10/18 08:49:55;;;;;;;60.13;33.70;;;21.70;64.70;;;;;;5055231;28;20374;-17
2022/10/18 08:52:33;;;;;;;55.80;31.10;;;21.80;65.60;;;;;;5054329;28;20021;-18
2022/10/18 08:55:22;;;;;;;54.88;31.48;;;21.90;66.30;;;;;;5054677;28;20141;-18
2022/10/18 08:57:49;;;;;;;52.22;28.92;;;22.10;64.60;;;;;;5055269;28;20037;-17
2022/10/18 09:00:20;;;;;;;43.58;26.83;;;22.30;65.10;;;;;;5055145;28;20132;-16
2022/10/18 09:02:46;;;;;;;43.70;27.23;;;22.50;64.10;;;;;;5054641;28;20025;-22
2022/10/18 09:05:34;;;;;;;42.70;26.13;;;22.80;63.50;;;;;;5055046;28;20023;-18
2022/10/18 09:08:21;;;;;;;38.58;25.92;;;23.00;62.70;;;;;;5054954;28;20021;-17
2022/10/18 09:11:10;;;;;;;42.50;27.17;;;23.30;62.80;;;;;;5054910;28;20036;-19
2022/10/18 09:14:13;;;;;;;50.53;30.60;;;23.50;62.10;;;;;;5053313;28;20087;-18
2022/10/18 09:16:45;;;;;;;39.72;25.35;;;23.70;60.80;;;;;;5055380;28;20028;-18
2022/10/18 09:19:26;;;;;;;37.33;23.20;;;23.90;60.50;;;;;;5054587;28;20559;-17
2022/10/18 09:22:09;;;;;;;44.10;26.33;;;24.00;60.40;;;;;;5054667;28;20021;-16
2022/10/18 09:24:39;;;;;;;35.60;24.58;;;24.20;58.90;;;;;;5054570;28;20435;-17
2022/10/18 09:27:15;;;;;;;31.63;21.80;;;24.30;59.20;;;;;;5054248;28;20025;-17
2022/10/18 09:29:53;;;;;;;35.38;23.80;;;24.40;59.70;;;;;;5054320;28;20053;-16
2022/10/18 09:32:28;;;;;;;32.75;22.80;;;24.60;58.70;;;;;;5054301;28;20071;-18
2022/10/18 09:35:21;;;;;;;38.22;24.98;;;24.80;58.60;;;;;;5054245;28;20112;-17
2022/10/18 09:37:49;;;;;;;35.30;23.27;;;24.90;58.20;;;;;;5053938;28;20025;-17
2022/10/18 09:40:23;;;;;;;38.70;25.60;;;24.80;59.00;;;;;;5054120;28;20040;-18
2022/10/18 09:42:58;;;;;;;32.40;21.50;;;24.90;57.90;;;;;;5054717;28;20021;-18
2022/10/18 09:45:32;;;;;;;36.97;24.60;;;25.10;57.80;;;;;;5054016;28;20033;-18
2022/10/18 09:48:07;;;;;;;34.97;23.40;;;25.20;56.50;;;;;;5054169;28;20025;-17
2022/10/18 09:50:42;;;;;;;30.52;20.38;;;25.40;56.50;;;;;;5054262;28;20086;-17
2022/10/18 09:53:36;;;;;;;31.88;22.20;;;25.50;56.50;;;;;;5053612;28;20025;-18
2022/10/18 09:56:15;;;;;;;34.60;24.05;;;25.80;55.60;;;;;;5054136;28;20031;-18
2022/10/18 09:58:46;;;;;;;29.98;21.73;;;26.00;56.20;;;;;;5053756;28;20061;-17
2022/10/18 10:01:17;;;;;;;28.40;19.77;;;26.20;55.50;;;;;;5053600;28;20025;-16
2022/10/18 10:03:43;;;;;;;34.67;23.77;;;26.40;55.70;;;;;;5053526;28;20384;-17
2022/10/18 10:06:11;;;;;;;33.55;23.83;;;26.60;53.80;;;;;;5053888;28;20037;-17
2022/10/18 10:08:43;;;;;;;29.38;21.50;;;26.90;53.40;;;;;;5053813;28;20052;-17
2022/10/18 10:11:30;;;;;;;32.90;23.85;;;27.20;53.00;;;;;;5053370;28;20112;-17
2022/10/18 10:14:06;;;;;;;35.25;22.25;;;27.50;50.00;;;;;;5053688;28;20044;-17
2022/10/18 10:16:33;;;;;;;29.20;21.42;;;27.80;49.70;;;;;;5053397;28;20045;-18
2022/10/18 10:18:59;;;;;;;28.20;20.30;;;28.00;50.00;;;;;;5053196;28;20094;-17
2022/10/18 10:21:25;;;;;;;25.50;18.20;;;28.30;48.40;;;;;;5054208;28;20137;-17
2022/10/18 10:23:58;;;;;;;24.77;18.77;;;28.50;48.70;;;;;;5053339;28;20013;-17
2022/10/18 10:26:32;;;;;;;23.45;17.83;;;28.90;46.60;;;;;;5053651;28;20025;-17
2022/10/18 10:28:58;;;;;;;23.42;18.55;;;29.10;47.60;;;;;;5053709;28;20017;-16
2022/10/18 10:31:24;;;;;;;27.85;18.73;;;29.40;47.50;;;;;;5053220;28;20391;-17
2022/10/18 10:34:19;;;;;;;19.70;15.65;;;29.60;47.00;;;;;;5053088;28;20112;-15
2022/10/18 10:36:53;;;;;;;26.67;20.13;;;29.90;46.10;;;;;;5053503;28;20464;-17
2022/10/18 10:39:22;;;;;;;26.33;20.52;;;30.20;45.60;;;;;;5052963;28;20051;-15
2022/10/18 10:41:52;;;;;;;26.52;19.02;;;30.40;45.60;;;;;;5053092;28;20086;-17
2022/10/18 10:44:27;;;;;;;25.70;19.10;;;30.40;45.80;;;;;;5053167;28;20059;-16
2022/10/18 10:46:53;;;;;;;28.48;20.67;;;30.30;45.80;;;;;;5053594;28;20021;-17
2022/10/18 10:49:21;;;;;;;26.92;19.40;;;30.30;46.20;;;;;;5053300;28;20029;-17
2022/10/18 10:52:00;;;;;;;28.55;20.08;;;30.40;46.00;;;;;;5053494;28;20025;-13
2022/10/18 10:54:28;;;;;;;32.05;20.38;;;30.50;45.40;;;;;;5052868;28;20071;-17
2022/10/18 10:57:03;;;;;;;23.98;19.02;;;30.80;44.60;;;;;;5052761;28;20029;-17
2022/10/18 10:59:46;;;;;;;27.48;20.67;;;30.90;44.00;;;;;;5053500;28;20492;-17
2022/10/18 11:02:17;;;;;;;;;;;31.10;41.60;;;;;;5053946;28;20056;-17
2022/10/18 11:04:48;;;;;;;27.63;21.08;;;31.30;42.00;;;;;;5053176;28;19905;-17
2022/10/18 11:07:29;;;;;;;27.85;21.10;;;31.30;42.60;;;;;;5108020;22;20056;-14
2022/10/18 11:10:12;;;;;;;23.63;18.00;;;31.30;43.00;;;;;;5052879;28;20025;-14
2022/10/18 11:13:01;;;;;;;24.42;18.00;;;31.20;43.50;;;;;;5052878;28;20034;-14
2022/10/18 11:15:43;;;;;;;28.02;17.42;;;31.30;42.40;;;;;;5056110;28;20484;-14
2022/10/18 11:18:35;;;;;;;20.37;15.60;;;31.40;42.60;;;;;;5056857;28;20033;-14
2022/10/18 11:21:06;;;;;;;21.52;17.23;;;31.70;40.60;;;;;;5056733;28;20739;-14
2022/10/18 11:23:34;;;;;;;22.17;17.38;;;32.00;41.70;;;;;;5057065;28;20025;-14
2022/10/18 11:26:21;;;;;;;22.65;17.95;;;32.20;41.40;;;;;;5056790;28;20384;-14
2022/10/18 11:28:56;;;;;;;20.50;16.70;;;32.30;40.00;;;;;;5055220;28;20074;-15
2022/10/18 11:32:09;;;;;;;22.20;16.35;;;32.40;41.00;;;;;;5056998;28;20075;-14
2022/10/18 11:34:53;;;;;;;29.02;21.23;;;32.40;41.10;;;;;;5033803;28;20125;-14
2022/10/18 11:37:43;;;;;;;21.88;16.85;;;32.30;39.90;;;;;;5056567;28;20499;-14
2022/10/18 11:40:26;;;;;;;21.27;16.38;;;31.90;39.90;;;;;;5056450;28;20565;-14
2022/10/18 11:43:20;;;;;;;24.77;18.70;;;31.70;41.30;;;;;;5056210;28;20049;-14
2022/10/18 11:45:55;;;;;;;22.75;17.38;;;31.90;38.00;;;;;;5056728;28;20021;-14
2022/10/18 11:48:30;;;;;;;20.23;16.33;;;32.00;40.30;;;;;;5056576;28;20032;-14
2022/10/18 11:51:05;;;;;;;21.27;16.50;;;32.00;39.60;;;;;;5055830;28;20499;-14
2022/10/18 11:53:40;;;;;;;23.92;18.52;;;31.80;40.50;;;;;;5056917;28;20078;-14
2022/10/18 11:56:18;;;;;;;23.48;19.25;;;32.00;37.90;;;;;;5056720;28;20024;-14
2022/10/18 11:59:01;;;;;;;31.95;17.92;;;32.20;38.00;;;;;;5056414;28;20025;-14
2022/10/18 12:01:39;;;;;;;23.73;18.45;;;32.40;38.00;;;;;;5056072;28;20032;-15
2022/10/18 12:04:18;;;;;;;22.02;17.42;;;32.60;37.90;;;;;;5056204;28;20021;-14
2022/10/18 12:06:49;;;;;;;25.95;19.38;;;32.80;38.20;;;;;;5055575;28;20404;-15
2022/10/18 12:09:33;;;;;;;24.20;18.75;;;33.00;38.60;;;;;;5056488;28;20364;-14
2022/10/18 12:12:28;;;;;;;23.48;18.52;;;33.20;36.30;;;;;;5056172;28;20028;-14
2022/10/18 12:15:17;;;;;;;26.08;19.75;;;33.40;36.80;;;;;;5055492;28;20029;-14
2022/10/18 12:17:45;;;;;;;24.70;18.75;;;33.50;37.00;;;;;;5056001;28;20039;-14
2022/10/18 12:20:20;;;;;;;24.92;17.85;;;33.60;37.10;;;;;;5055603;28;20025;-13
2022/10/18 12:23:04;;;;;;;25.45;17.15;;;33.80;36.80;;;;;;5055533;28;20139;-14
2022/10/18 12:25:34;;;;;;;27.20;19.85;;;33.90;35.70;;;;;;5054842;28;20429;-14
2022/10/18 12:28:15;;;;;;;24.27;17.23;;;33.90;36.20;;;;;;5055765;28;20094;-14
2022/10/18 12:30:55;;;;;;;24.13;19.33;;;33.80;36.70;;;;;;5055768;28;20029;-14
2022/10/18 12:33:27;;;;;;;19.17;15.85;;;33.70;36.50;;;;;;5055911;28;20415;-14
2022/10/18 12:36:12;;;;;;;23.75;16.75;;;33.70;36.70;;;;;;5055757;28;20037;-15
2022/10/18 12:38:44;;;;;;;24.10;16.50;;;33.90;36.00;;;;;;5055268;28;20033;-14
2022/10/18 12:41:38;;;;;;;25.65;19.90;;;34.00;35.10;;;;;;5055407;28;20071;-14
2022/10/18 12:44:30;;;;;;;22.70;18.10;;;34.10;34.40;;;;;;5055429;28;20021;-14
2022/10/18 12:46:59;;;;;;;21.35;15.43;;;33.80;35.20;;;;;;5038382;28;20095;-14
2022/10/18 12:49:45;;;;;;;20.00;15.57;;;33.40;36.20;;;;;;5055080;28;20408;-14